Latest Weather Observations for Melbourne (Olympic Park)

IDV60801

Issued at 6:02 pm EST Friday 29 April 2016 (issued every 30 minutes, with the page automatically refreshed every 10 minutes)

About weather observations | Map of weather stations | Latest weather observations for VIC | Other Formats
Station Details ID: 086338 Name: MELBOURNE (OLYMPIC PARK) Lat: -37.83 Lon: 144.98 Height: 7.53 m
Data from the previous 72 hours. | See also: Recent months at Melbourne (Olympic Park)
Date/Time
EST
Temp
°C
App
Temp
°C
Dew
Point
Rel
Hum
%
Delta-T
°C
Wind Press
QNH
hPa
Press
MSL
hPa
Rain
since 9 am
mm
Dir
 
Spd
km/h
Gust
km/h
Spd
kts
Gust
kts
29/06:00pm 17.9 17.4 15.0 83 1.7 NNE 11 17 6 9 1013.3 1013.3 6.2
29/05:30pm 18.2 17.8 15.1 82 1.8 N 11 17 6 9 1013.1 1013.1 6.2
29/05:00pm 18.4 17.3 15.3 82 1.8 N 15 26 8 14 1012.9 1012.9 6.2
29/04:30pm 17.6 17.9 16.1 91 0.9 NNE 9 15 5 8 1012.9 1012.9 6.2
29/04:00pm 17.3 17.3 16.3 94 0.6 NNE 11 17 6 9 1013.0 1013.0 6.0
29/03:30pm 17.0 17.0 16.2 95 0.5 NNE 11 13 6 7 1013.4 1013.4 6.0
29/03:00pm 17.0 16.9 16.0 94 0.6 NNE 11 15 6 8 1013.7 1013.7 5.4
29/02:30pm 17.2 17.5 16.1 93 0.7 NNE 9 15 5 8 1014.1 1014.1 4.8
29/02:00pm 17.2 17.1 16.1 93 0.6 NNE 11 15 6 8 1014.0 1014.0 4.0
29/01:30pm 17.4 17.7 15.9 91 0.9 NNE 9 13 5 7 1014.2 1014.2 3.2
29/01:13pm 17.4 17.9 15.6 89 1.1 N 7 13 4 7 1015.0 - 2.8
29/01:00pm 17.5 18.1 15.3 87 1.3 N 6 9 3 5 1014.0 1014.0 2.4
29/12:30pm 18.2 17.9 14.5 79 2.1 N 9 13 5 7 1014.4 1014.4 0.8
29/12:00pm 19.2 18.8 14.0 72 3.0 N 9 15 5 8 1014.8 1014.8 0.2
29/11:30am 19.9 18.4 13.1 65 3.9 NNW 13 30 7 16 1014.9 1014.9 0.0
29/11:00am 20.5 18.4 12.5 60 4.5 N 15 26 8 14 1015.0 1015.0 0.0
29/10:30am 20.1 18.8 12.6 62 4.2 N 11 15 6 8 1015.0 1015.0 0.0
29/10:00am 19.8 17.6 12.1 61 4.3 N 15 20 8 11 1014.7 1014.7 0.0
29/09:30am 19.1 17.8 12.6 66 3.6 N 11 19 6 10 1015.2 1015.2 0.0
29/09:00am 18.9 17.2 12.6 67 3.5 N 13 20 7 11 1015.4 1015.4 0.4
29/08:30am 20.3 17.0 11.5 57 4.9 NNW 20 41 11 22 1015.6 1015.6 0.0
29/08:00am 21.4 18.9 10.9 51 5.8 N 15 22 8 12 1014.5 1014.5 0.0
29/07:30am 21.7 19.0 10.2 48 6.3 N 15 28 8 15 1014.0 1014.0 0.0
29/07:00am 22.1 19.0 10.3 47 6.4 N 17 37 9 20 1013.8 1013.8 0.0
29/06:30am 21.7 18.8 9.6 46 6.5 N 15 24 8 13 1014.0 1014.0 0.0
29/06:00am 19.9 18.6 9.8 52 5.4 N 7 13 4 7 1014.2 1014.2 0.0
29/05:30am 18.8 17.2 10.1 57 4.6 NNE 9 13 5 7 1014.3 1014.3 0.0
29/05:00am 19.0 17.3 10.0 56 4.8 NNE 9 15 5 8 1014.5 1014.5 0.0
29/04:30am 19.2 17.6 10.2 56 4.8 NE 9 15 5 8 1014.4 1014.4 0.0
29/04:00am 19.2 17.7 10.5 57 4.7 NNE 9 13 5 7 1014.5 1014.5 0.0
29/03:30am 17.8 16.8 11.1 65 3.6 N 7 9 4 5 1014.6 1014.6 0.0
29/03:00am 18.4 17.2 11.5 64 3.8 NNE 9 11 5 6 1014.6 1014.6 0.0
29/02:30am 17.7 17.2 11.9 69 3.2 NNE 6 9 3 5 1015.1 1015.1 0.0
29/02:00am 17.6 16.3 12.5 72 2.8 NNE 11 13 6 7 1015.3 1015.3 0.0
29/01:30am 17.5 16.6 12.6 73 2.7 NNE 9 15 5 8 1015.5 1015.5 0.0
29/01:00am 17.5 16.6 12.6 73 2.7 NNE 9 13 5 7 1015.5 1015.5 0.0
29/12:30am 18.0 16.8 12.7 71 3.0 NNE 11 15 6 8 1015.8 1015.8 0.0
29/12:00am 17.9 17.1 12.8 72 2.8 NNE 9 15 5 8 1015.9 1015.9 0.0
 
Date/Time
EST
Temp
°C
App
Temp
°C
Dew
Point
Rel
Hum
%
Delta-T
°C
Wind Press
QNH
hPa
Press
MSL
hPa
Rain
since 9 am
mm
Dir
 
Spd
km/h
Gust
km/h
Spd
kts
Gust
kts
28/11:30pm 17.7 18.7 13.2 75 2.5 CALM 0 0 0 0 1016.2 1016.2 0.0
28/11:00pm 17.4 18.4 13.3 77 2.3 CALM 0 0 0 0 1016.7 1016.7 0.0
28/10:30pm 17.3 18.4 13.4 78 2.2 CALM 0 0 0 0 1017.2 1017.2 0.0
28/10:00pm 17.7 18.6 13.0 74 2.6 CALM 0 0 0 0 1017.5 1017.5 0.0
28/09:30pm 17.7 18.6 13.0 74 2.6 CALM 0 0 0 0 1017.4 1017.4 0.0
28/09:00pm 18.0 18.9 12.9 72 2.9 CALM 0 7 0 4 1017.3 1017.3 0.0
28/08:30pm 17.9 18.9 13.2 74 2.6 CALM 0 0 0 0 1017.2 1017.2 0.0
28/08:00pm 19.1 20.1 13.3 69 3.3 CALM 0 0 0 0 1017.2 1017.2 0.0
28/07:30pm 19.5 19.8 13.4 68 3.5 SSW 4 9 2 5 1017.0 1017.0 0.0
28/07:00pm 19.0 20.1 13.4 70 3.2 CALM 0 0 0 0 1016.6 1016.6 0.0
28/06:30pm 19.7 20.8 13.6 68 3.5 CALM 0 0 0 0 1016.2 1016.2 0.0
28/06:00pm 20.2 21.3 13.4 65 3.9 CALM 0 0 0 0 1016.2 1016.2 0.0
28/05:30pm 21.0 21.9 12.9 60 4.6 CALM 0 0 0 0 1016.1 1016.1 0.0
28/05:00pm 21.7 22.1 12.5 56 5.2 SW 2 9 1 5 1016.1 1016.1 0.0
28/04:30pm 22.4 23.0 11.8 51 6.0 CALM 0 0 0 0 1016.1 1016.1 0.0
28/04:00pm 22.8 21.9 11.2 48 6.4 SSW 7 13 4 7 1016.3 1016.3 0.0
28/03:30pm 23.9 25.2 14.0 54 5.8 CALM 0 6 0 3 1016.4 1016.4 0.0
28/03:00pm 24.5 25.4 12.8 48 6.7 CALM 0 0 0 0 1016.5 1016.5 0.0
28/02:30pm 24.3 23.5 10.9 43 7.5 NNW 6 13 3 7 1016.8 1016.8 0.0
28/02:17pm 24.3 23.1 10.2 41 7.8 NNW 7 11 4 6 1017.7 - 0.0
28/02:00pm 24.7 23.5 11.6 44 7.4 NNW 9 17 5 9 1016.9 1016.9 0.0
28/01:30pm 23.0 22.5 12.6 52 5.9 NNW 7 11 4 6 1017.1 1017.1 0.0
28/01:00pm 21.5 21.7 12.9 58 4.9 N 4 9 2 5 1017.3 1017.3 0.0
28/12:30pm 20.5 19.7 13.0 62 4.3 NNE 9 13 5 7 1017.4 1017.4 0.0
28/12:00pm 20.8 19.5 11.4 55 5.2 N 9 11 5 6 1017.8 1017.8 0.0
28/11:30am 21.1 18.8 10.3 50 5.9 N 13 22 7 12 1018.2 1018.2 0.0
28/11:00am 22.0 18.6 9.2 44 6.8 N 17 26 9 14 1018.1 1018.1 0.0
28/10:30am 22.0 18.7 9.5 45 6.7 N 17 28 9 15 1018.0 1018.0 0.0
28/10:00am 21.6 19.0 9.2 45 6.6 N 13 20 7 11 1018.2 1018.2 0.0
28/09:30am 21.2 17.9 9.4 47 6.3 NNW 17 24 9 13 1018.3 1018.3 0.0
28/09:00am 21.0 17.6 9.3 47 6.2 NNW 17 26 9 14 1018.3 1018.3 0.0
28/08:30am 20.9 17.1 8.9 46 6.3 N 19 26 10 14 1017.9 1017.9 0.0
28/08:00am 20.8 16.9 8.8 46 6.3 N 19 30 10 16 1017.5 1017.5 0.0
28/07:30am 20.6 16.5 8.6 46 6.3 N 20 30 11 16 1016.8 1016.8 0.0
28/07:00am 20.7 16.6 8.7 46 6.3 N 20 32 11 17 1016.5 1016.5 0.0
28/06:30am 20.8 16.6 8.4 45 6.5 N 20 30 11 16 1016.3 1016.3 0.0
28/06:00am 20.8 16.9 8.8 46 6.3 N 19 32 10 17 1016.3 1016.3 0.0
28/05:30am 21.0 17.1 8.6 45 6.5 N 19 28 10 15 1016.1 1016.1 0.0
28/05:00am 21.3 17.3 8.2 43 6.8 N 19 28 10 15 1016.0 1016.0 0.0
28/04:30am 21.4 17.8 8.3 43 6.9 N 17 28 9 15 1015.8 1015.8 0.0
28/04:00am 21.4 17.8 8.3 43 6.9 N 17 30 9 16 1015.8 1015.8 0.0
28/03:30am 21.6 18.3 8.1 42 7.1 N 15 24 8 13 1015.8 1015.8 0.0
28/03:00am 21.6 18.2 7.8 41 7.2 NNW 15 24 8 13 1016.1 1016.1 0.0
28/02:30am 22.1 19.1 7.5 39 7.6 N 13 22 7 12 1016.2 1016.2 0.0
28/02:00am 22.3 18.4 7.3 38 7.7 N 17 26 9 14 1016.0 1016.0 0.0
28/01:30am 22.6 18.3 7.2 37 8.0 N 19 30 10 16 1015.6 1015.6 0.0
28/01:00am 22.6 18.2 7.2 37 8.0 N 20 33 11 18 1015.6 1015.6 0.0
28/12:30am 22.6 18.7 7.2 37 8.0 N 17 28 9 15 1015.6 1015.6 0.0
28/12:00am 23.1 18.9 7.6 37 8.1 N 19 32 10 17 1015.8 1015.8 0.0
 
Date/Time
EST
Temp
°C
App
Temp
°C
Dew
Point
Rel
Hum
%
Delta-T
°C
Wind Press
QNH
hPa
Press
MSL
hPa
Rain
since 9 am
mm
Dir
 
Spd
km/h
Gust
km/h
Spd
kts
Gust
kts
27/11:30pm 22.6 19.6 7.6 38 7.8 N 13 24 7 13 1015.8 1015.8 0.0
27/11:00pm 22.7 18.9 7.7 38 7.8 N 17 28 9 15 1016.1 1016.1 0.0
27/10:30pm 22.4 19.9 8.1 40 7.5 N 11 20 6 11 1016.6 1016.6 0.0
27/10:00pm 22.5 19.5 7.9 39 7.6 NNE 13 19 7 10 1016.8 1016.8 0.0
27/09:30pm 23.0 19.6 7.5 37 8.1 N 15 30 8 16 1016.9 1016.9 0.0
27/09:00pm 22.8 20.3 8.1 39 7.7 N 11 15 6 8 1016.9 1016.9 0.0
27/08:30pm 22.8 20.7 8.1 39 7.7 N 9 17 5 9 1017.0 1017.0 0.0
27/08:00pm 22.5 20.9 8.6 41 7.4 NNE 7 9 4 5 1016.7 1016.7 0.0
27/07:30pm 22.7 20.7 8.8 41 7.4 NNE 9 15 5 8 1016.7 1016.7 0.0
27/07:00pm 23.0 21.1 9.0 41 7.5 N 9 15 5 8 1016.6 1016.6 0.0
27/06:30pm 23.1 21.3 9.5 42 7.4 N 9 15 5 8 1016.6 1016.6 0.0
27/06:00pm 23.3 21.1 9.3 41 7.5 N 11 17 6 9 1016.4 1016.4 0.0
27/05:30pm 23.8 21.6 9.4 40 7.8 N 11 17 6 9 1016.2 1016.2 0.0
27/05:00pm 23.9 21.6 9.1 39 8.0 NNE 11 19 6 10 1016.1 1016.1 0.0
27/04:30pm 24.3 21.6 9.1 38 8.2 N 13 22 7 12 1016.3 1016.3 0.0
27/04:00pm 24.5 21.9 9.3 38 8.2 N 13 20 7 11 1016.4 1016.4 0.0
27/03:30pm 24.5 20.8 9.3 38 8.3 N 19 28 10 15 1016.1 1016.1 0.0
27/03:00pm 24.8 21.1 9.5 38 8.3 N 19 33 10 18 1016.2 1016.2 0.0
27/02:30pm 24.5 19.7 8.9 37 8.4 N 24 37 13 20 1016.4 1016.4 0.0
27/02:00pm 25.1 20.5 9.8 38 8.4 N 24 43 13 23 1016.4 1016.4 0.0
27/01:34pm 24.6 19.1 9.3 38 8.3 N 28 50 15 27 1016.7 1016.7 0.0
27/01:30pm 24.8 20.2 9.5 38 8.4 N 24 37 13 20 1016.9 1016.9 0.0
27/01:00pm 24.0 18.8 8.8 38 8.1 N 26 41 14 22 1017.1 1017.1 0.0
27/12:31pm 23.2 17.5 8.5 39 7.8 N 28 48 15 26 1018.9 - 0.0
27/12:30pm 23.5 17.9 8.8 39 7.9 N 28 48 15 26 1018.0 1018.0 0.0
27/12:00pm 23.6 18.0 8.8 39 7.9 N 28 52 15 28 1018.4 1018.4 0.0
27/11:57am 23.6 18.0 8.8 39 7.9 N 28 52 15 28 1018.5 1018.5 0.0
27/11:30am 23.7 18.9 8.9 39 7.9 N 24 37 13 20 1019.0 1019.0 0.0
27/11:00am 22.8 17.1 8.5 40 7.6 N 28 41 15 22 1019.6 1019.6 0.0
27/10:30am 22.1 17.1 8.2 41 7.3 N 24 39 13 21 1020.3 1020.3 0.0
27/10:00am 21.7 15.4 7.5 40 7.3 NNW 30 50 16 27 1020.6 1020.6 0.0
27/09:55am 21.5 15.2 7.3 40 7.3 NNW 30 50 16 27 1020.7 1020.7 0.0
27/09:30am 21.2 16.7 7.1 40 7.2 N 20 32 11 17 1020.8 1020.8 0.0
27/09:00am 19.8 15.3 6.2 41 6.8 N 19 30 10 16 1021.0 1021.0 0.0
27/08:30am 18.7 14.8 5.5 42 6.4 N 15 24 8 13 1021.3 1021.3 0.0
27/08:00am 17.3 13.8 5.6 46 5.6 NNW 13 20 7 11 1021.0 1021.0 0.0
27/07:30am 17.3 13.5 5.6 46 5.7 NNW 15 20 8 11 1020.6 1020.6 0.0
27/07:00am 17.4 13.0 5.0 44 5.9 N 17 24 9 13 1020.4 1020.4 0.0
27/06:30am 16.9 14.1 5.2 46 5.6 N 9 13 5 7 1020.4 1020.4 0.0
27/06:00am 16.9 14.2 5.5 47 5.5 N 9 13 5 7 1020.5 1020.5 0.0
27/05:30am 16.9 14.2 5.8 48 5.4 N 9 13 5 7 1020.3 1020.3 0.0
27/05:00am 15.9 13.6 5.8 51 4.8 N 7 13 4 7 1019.9 1019.9 0.0
27/04:30am 15.7 13.5 6.4 54 4.5 N 7 11 4 6 1019.8 1019.8 0.0
27/04:00am 14.0 12.9 6.8 62 3.5 NE 2 7 1 4 1019.7 1019.7 0.0
27/03:30am 15.0 13.7 5.8 54 4.4 N 2 11 1 6 1019.8 1019.8 0.0
27/03:00am 15.8 12.7 5.7 51 4.8 NNE 11 15 6 8 1020.2 1020.2 0.0
27/02:30am 16.6 13.6 5.9 49 5.2 N 11 19 6 10 1020.5 1020.5 0.0
27/02:00am 15.1 12.3 5.3 52 4.6 NNE 9 15 5 8 1020.9 1020.9 0.0
27/01:30am 14.0 12.9 6.8 62 3.5 NNE 2 7 1 4 1021.2 1021.2 0.0
27/01:00am 13.9 11.8 6.0 59 3.7 NNW 6 9 3 5 1021.3 1021.3 0.0
27/12:30am 13.6 13.1 7.8 68 2.9 CALM 0 6 0 3 1021.5 1021.5 0.0
27/12:00am 15.0 13.5 5.2 52 4.6 N 2 9 1 5 1021.7 1021.7 0.0
 
Date/Time
EST
Temp
°C
App
Temp
°C
Dew
Point
Rel
Hum
%
Delta-T
°C
Wind Press
QNH
hPa
Press
MSL
hPa
Rain
since 9 am
mm
Dir
 
Spd
km/h
Gust
km/h
Spd
kts
Gust
kts
26/11:30pm 16.5 14.3 5.2 47 5.4 N 6 9 3 5 1021.8 1021.8 0.0
26/11:00pm 16.7 13.9 5.0 46 5.5 N 9 17 5 9 1021.9 1021.9 0.0
26/10:30pm 16.8 14.0 5.1 46 5.6 N 9 13 5 7 1022.1 1022.1 0.0
26/10:00pm 17.3 14.5 5.3 45 5.7 N 9 13 5 7 1022.3 1022.3 0.0
26/09:30pm 17.8 15.4 5.4 44 6.0 N 7 15 4 8 1022.5 1022.5 0.0
26/09:00pm 18.3 15.4 4.8 41 6.4 NNE 9 13 5 7 1022.7 1022.7 0.0
26/08:30pm 18.6 16.7 5.1 41 6.5 N 4 7 2 4 1022.8 1022.8 0.0
26/08:00pm 19.7 16.8 4.6 37 7.3 NNE 9 13 5 7 1022.9 1022.9 0.0
26/07:30pm 20.2 17.8 5.1 37 7.4 NNE 7 9 4 5 1023.0 1023.0 0.0
26/07:00pm 21.5 19.2 5.0 34 8.1 NNE 6 9 3 5 1023.1 1023.1 0.0
26/06:30pm 22.1 19.6 4.7 32 8.6 NNE 7 9 4 5 1022.9 1022.9 0.0

Other Formats:

Comma delimited format used in spreadsheet applications
http://www.bom.gov.au/fwo/IDV60801/IDV60801.95936.axf

JavaScript Object Notation format (JSON) in row-major order
http://www.bom.gov.au/fwo/IDV60801/IDV60801.95936.json